Nearby METAR Reports

 

KAVP - Avoca/Wilkes B., Pennsylvania, USA
Distance from station: N 16mi, 25km
Updated: 01/17/2019 3:54am
Clear
Clear
 Wind from N
Wind: N 7 mph , 11 km/h
Temperature: 18°F , -8°C
Wind Chill: 9°F , -13°C
Dew Point: 9°F , -13°C
Humidity: 68%
Barometer: 30.29 inHg , 1025.7 hPa
Clouds: Clear
Visibility: 10 miles , 16 km
2019/01/17 08:54 KAVP 170854Z 35006KT 10SM CLR M08/M13 A3029 RMK AO2 SLP268 T10831133 50006
KMPO - Mt. Pocono, Pennsylvania, USA
Distance from station: E 20mi, 33km
Updated: 01/17/2019 3:53am
Clear
Clear
 Wind from NNW
Wind: NNW 8 mph , 13 km/h
Temperature: 14°F , -10°C
Wind Chill: 3°F , -16°C
Dew Point: 7°F , -14°C
Humidity: 73%
Barometer: 30.20 inHg , 1022.7 hPa
Clouds: Clear
Visibility: 10 miles , 16 km
2019/01/17 08:53 KMPO 170853Z AUTO 33007KT 10SM CLR M10/M14 A3020 RMK AO2 SLP256 T11001144 50006 $
 
KABE - Allentown, Pennsylvania, USA
Distance from station: SSE 36mi, 58km
Updated: 01/17/2019 3:51am
Clear
Clear
 Wind from N
Wind: N 10 mph , 17 km/h
Temperature: 25°F , -4°C
Wind Chill: 15°F , -9°C
Dew Point: 10°F , -12°C
Humidity: 54%
Barometer: 30.32 inHg , 1026.8 hPa
Clouds: Clear
Visibility: 10 miles , 16 km
2019/01/17 08:51 KABE 170851Z 36009KT 10SM CLR M04/M12 A3032 RMK AO2 SLP273 T10391117 51017
KXLL - Allentown Queen, Pennsylvania, USA
Distance from station: SSE 41mi, 65km
Updated: 01/17/2019 4:35am
Clear
Clear
 Wind from N
Wind: N 6 mph , 9 km/h
Temperature: 27°F , -3°C
Wind Chill: 20°F , -7°C
Dew Point: 14°F , -10°C
Humidity: 59%
Barometer: 30.34 inHg , 1027.4 hPa
Clouds: Clear
Visibility: 10 miles , 16 km
2019/01/17 09:35 KXLL 170935Z AUTO 36005KT 10SM CLR M03/M10 A3034 RMK AO2